Time;durP1;ratioP1;P1;durP2;ratioP2;P2;SDS_P1;SDS_P2;PMS_P1;PMS_P2;Temp;Humidity;BMP_temperature;BMP_pressure;BME280_temperature;BME280_humidity;BME280_pressure;Samples;Min_cycle;Max_cycle;Signal;HPM_P1;HPM_P2
2022/10/13 00:01:35;;;;;;;;;29.50;27.00;;;;;18.41;46.39;101580.81;5081721;27;46956;-55
2022/10/13 00:04:00;;;;;;;;;27.50;26.25;;;;;18.41;46.43;101579.97;5082553;28;45173;-57
2022/10/13 00:06:26;;;;;;;;;28.00;27.00;;;;;18.39;46.42;101588.00;5096819;27;45172;-57
2022/10/13 00:08:51;;;;;;;;;38.25;29.50;;;;;18.39;46.19;101593.31;5090462;27;45387;-56
2022/10/13 00:11:23;;;;;;;;;33.00;28.50;;;;;18.39;46.50;101582.69;5082157;27;45962;-56
2022/10/13 00:13:49;;;;;;;;;36.00;28.50;;;;;18.38;46.56;101580.94;5082473;27;45458;-57
2022/10/13 00:16:18;;;;;;;;;32.50;26.75;;;;;18.38;46.54;101580.03;5089262;27;45265;-56
2022/10/13 00:18:43;;;;;;;;;34.00;29.25;;;;;18.35;46.38;101570.38;5087885;27;45508;-56
2022/10/13 00:21:12;;;;;;;;;28.50;26.25;;;;;18.33;46.49;101572.25;5082327;27;45407;-57
2022/10/13 00:23:38;;;;;;;;;28.75;26.25;;;;;18.32;46.69;101575.81;5076204;27;45258;-58
2022/10/13 00:26:07;;;;;;;;;27.25;23.75;;;;;18.32;46.38;101581.13;5102346;27;45379;-56
2022/10/13 00:28:33;;;;;;;;;27.00;25.00;;;;;18.31;46.51;101582.06;5084177;27;45433;-56
2022/10/13 00:30:58;;;;;;;;;33.50;28.25;;;;;18.27;46.46;101578.63;5077054;28;45992;-57
2022/10/13 00:33:24;;;;;;;;;25.50;22.75;;;;;18.27;47.00;101578.63;5098617;27;45272;-56
2022/10/13 00:35:49;;;;;;;;;28.50;26.00;;;;;18.26;46.82;101574.22;5082324;27;45362;-55
2022/10/13 00:38:17;;;;;;;;;24.00;23.25;;;;;18.25;46.48;101575.16;5082007;27;45418;-57
2022/10/13 00:40:46;;;;;;;;;32.75;26.75;;;;;18.24;46.86;101572.53;5081516;27;45284;-56
2022/10/13 00:43:27;;;;;;;;;22.00;21.75;;;;;18.19;46.87;101572.69;5081784;27;45268;-57
2022/10/13 00:45:53;;;;;;;;;27.00;22.50;;;;;18.17;46.83;101572.72;5081831;27;45239;-56
2022/10/13 00:48:26;;;;;;;;;23.50;22.75;;;;;18.17;46.63;101561.22;5081624;27;45418;-57
2022/10/13 00:50:51;;;;;;;;;26.00;22.25;;;;;18.16;46.87;101559.50;5081685;27;46179;-56
2022/10/13 00:53:22;;;;;;;;;24.50;20.25;;;;;18.11;46.59;101549.03;5081531;27;45256;-57
2022/10/13 00:55:49;;;;;;;;;25.50;22.50;;;;;18.11;46.92;101541.03;5081962;27;45442;-56
2022/10/13 00:58:18;;;;;;;;;23.00;19.75;;;;;18.11;46.77;101541.03;5081432;27;45569;-56
2022/10/13 01:00:49;;;;;;;;;27.50;23.75;;;;;18.08;46.75;101546.44;5063431;28;46092;-56
2022/10/13 01:03:15;;;;;;;;;24.50;23.00;;;;;18.09;46.82;101539.34;5081398;27;45253;-57
2022/10/13 01:05:41;;;;;;;;;27.00;23.00;;;;;18.09;46.90;101542.03;5089508;27;45484;-56
2022/10/13 01:08:08;;;;;;;;;24.25;20.25;;;;;18.06;46.79;101534.97;5101944;27;45565;-56
2022/10/13 01:10:41;;;;;;;;;25.00;20.50;;;;;18.06;46.76;101532.31;5087268;27;46230;-56
2022/10/13 01:13:28;;;;;;;;;20.75;20.75;;;;;18.07;46.95;101531.41;5080052;27;45348;-56
2022/10/13 01:16:03;;;;;;;;;22.25;21.75;;;;;18.09;46.80;101534.03;5099776;27;45244;-57
2022/10/13 01:18:55;;;;;;;;;23.50;23.00;;;;;18.09;47.08;101548.19;5101554;27;45589;-55
2022/10/13 01:21:40;;;;;;;;;22.00;19.50;;;;;18.09;46.78;101542.88;5090264;27;47273;-57
2022/10/13 01:24:17;;;;;;;;;23.25;21.00;;;;;18.09;46.85;101548.19;5087399;27;45333;-56
2022/10/13 01:27:06;;;;;;;;;19.50;18.00;;;;;18.09;46.89;101534.91;5101800;27;45310;-56
2022/10/13 01:30:07;;;;;;;;;22.00;20.25;;;;;18.11;46.93;101534.84;5089813;27;45386;-56
2022/10/13 01:32:43;;;;;;;;;25.75;20.75;;;;;18.06;47.02;101536.78;5070979;27;45512;-56
2022/10/13 01:35:12;;;;;;;;;20.75;18.75;;;;;18.08;47.15;101546.44;5086233;27;45450;-56
2022/10/13 01:38:00;;;;;;;;;16.50;15.75;;;;;18.09;47.02;101547.34;5080443;27;45410;-56
2022/10/13 01:40:48;;;;;;;;;21.25;17.50;;;;;18.07;47.20;101531.41;5081192;27;45319;-56
2022/10/13 01:43:22;;;;;;;;;24.00;19.50;;;;;18.06;47.11;101528.81;5080630;27;45527;-56
2022/10/13 01:45:54;;;;;;;;;18.75;18.00;;;;;18.02;47.01;101522.72;5080654;27;45252;-56
2022/10/13 01:48:20;;;;;;;;;22.75;21.25;;;;;18.02;47.17;101520.06;5080695;27;45317;-56
2022/10/13 01:50:47;;;;;;;;;23.00;18.75;;;;;17.99;47.24;101525.50;5080840;27;45341;-56
2022/10/13 01:53:16;;;;;;;;;22.75;20.75;;;;;17.96;47.27;101526.47;5080690;27;46289;-57
2022/10/13 01:55:54;;;;;;;;;21.50;18.00;;;;;17.95;47.09;101523.81;5080856;27;45319;-55
2022/10/13 01:58:21;;;;;;;;;17.25;15.00;;;;;17.90;47.54;101515.09;5080839;27;45310;-56
2022/10/13 02:01:13;;;;;;;;;25.00;22.25;;;;;17.91;47.30;101530.13;5080516;28;45423;-57
2022/10/13 02:03:47;;;;;;;;;22.50;19.50;;;;;17.90;47.30;101525.72;5054126;27;46317;-57
2022/10/13 02:06:26;;;;;;;;;16.25;15.75;;;;;17.87;47.50;101506.31;5100751;27;45291;-57
2022/10/13 02:09:01;;;;;;;;;20.25;20.00;;;;;17.85;47.50;101516.13;5082800;27;45671;-56
2022/10/13 02:11:27;;;;;;;;;21.50;17.00;;;;;17.85;47.49;101525.91;5069914;27;45342;-56
2022/10/13 02:14:02;;;;;;;;;22.25;21.25;;;;;17.80;47.24;101519.88;5100668;27;47030;-56
2022/10/13 02:16:32;;;;;;;;;17.75;17.75;;;;;17.81;47.47;101529.56;5091244;27;45337;-57
2022/10/13 02:18:59;;;;;;;;;18.50;16.00;;;;;17.75;47.49;101508.50;5080354;27;45346;-55
2022/10/13 02:21:25;;;;;;;;;19.25;17.75;;;;;17.74;47.52;101514.75;5080423;28;45366;-58
2022/10/13 02:23:50;;;;;;;;;21.50;18.75;;;;;17.71;47.51;101505.94;5081039;27;46186;-55
2022/10/13 02:26:16;;;;;;;;;22.75;18.00;;;;;17.72;47.58;101522.75;5100645;27;45329;-57
2022/10/13 02:28:41;;;;;;;;;25.25;21.75;;;;;17.71;47.71;101513.06;5085745;27;45425;-57
2022/10/13 02:31:08;;;;;;;;;23.50;20.50;;;;;17.69;47.64;101513.09;5079963;27;45382;-56
2022/10/13 02:33:33;;;;;;;;;24.00;21.50;;;;;17.63;47.90;101497.31;5098010;27;46378;-56
2022/10/13 02:35:59;;;;;;;;;21.25;19.75;;;;;17.64;47.78;101492.91;5092474;27;45308;-57
2022/10/13 02:38:24;;;;;;;;;23.50;21.50;;;;;17.60;47.69;101489.47;5079374;27;45190;-56
2022/10/13 02:40:49;;;;;;;;;22.50;19.25;;;;;17.57;47.90;101488.69;5080131;27;45359;-56
2022/10/13 02:43:15;;;;;;;;;21.75;19.25;;;;;17.60;47.77;101496.59;5093084;27;46884;-57
2022/10/13 02:45:40;;;;;;;;;19.75;17.50;;;;;17.59;47.83;101481.56;5088186;27;45248;-56
2022/10/13 02:48:06;;;;;;;;;21.75;19.25;;;;;17.58;47.95;101474.50;5098998;27;45339;-57
2022/10/13 02:50:31;;;;;;;;;20.25;18.75;;;;;17.57;47.90;101473.59;5066605;28;45265;-56
2022/10/13 02:52:56;;;;;;;;;22.25;20.25;;;;;17.57;47.91;101470.94;5094709;27;45432;-57
2022/10/13 02:55:22;;;;;;;;;17.00;15.50;;;;;17.53;47.70;101454.25;5100352;27;45290;-56
2022/10/13 02:57:47;;;;;;;;;16.50;15.75;;;;;17.58;47.81;101463.88;5100369;27;45449;-56
2022/10/13 03:00:13;;;;;;;;;17.75;17.50;;;;;17.58;48.16;101454.09;5081844;27;45528;-56
2022/10/13 03:02:39;;;;;;;;;15.50;14.00;;;;;17.59;47.97;101462.94;5099408;27;46433;-56
2022/10/13 03:05:04;;;;;;;;;22.25;16.75;;;;;17.58;48.06;101461.22;5098775;27;45333;-56
2022/10/13 03:07:30;;;;;;;;;14.00;13.50;;;;;17.60;48.01;101464.69;5100228;27;45320;-57
2022/10/13 03:09:55;;;;;;;;;18.75;15.75;;;;;17.59;48.03;101461.16;5100239;27;45314;-57
2022/10/13 03:12:20;;;;;;;;;15.50;14.25;;;;;17.60;48.21;101460.22;5099583;27;50470;-57
2022/10/13 03:14:46;;;;;;;;;16.00;15.25;;;;;17.61;47.94;101461.97;5100103;27;45341;-56
2022/10/13 03:17:11;;;;;;;;;19.25;16.00;;;;;17.61;48.10;101455.78;5099731;27;45470;-56
2022/10/13 03:19:36;;;;;;;;;17.00;16.00;;;;;17.62;48.07;101461.06;5100253;27;45512;-56
2022/10/13 03:22:02;;;;;;;;;19.00;15.25;;;;;17.63;48.01;101468.09;5099836;27;46338;-57
2022/10/13 03:24:27;;;;;;;;;16.50;15.50;;;;;17.63;48.21;101469.91;5100120;27;45299;-56
2022/10/13 03:26:52;;;;;;;;;14.50;14.00;;;;;17.61;48.02;101463.75;5100180;27;45282;-57
2022/10/13 03:29:18;;;;;;;;;30.25;27.00;;;;;17.63;48.34;101454.81;5080047;27;45413;-57
2022/10/13 03:31:44;;;;;;;;;18.50;17.25;;;;;17.63;48.12;101449.50;5081645;27;46250;-57
2022/10/13 03:34:10;;;;;;;;;16.75;15.00;;;;;17.64;48.08;101437.09;5075167;28;45271;-56
2022/10/13 03:36:35;;;;;;;;;16.75;16.00;;;;;17.63;48.17;101424.72;5079620;28;45509;-56
2022/10/13 03:39:01;;;;;;;;;15.75;14.75;;;;;17.64;48.09;101426.47;5079814;27;45236;-55
2022/10/13 03:41:26;;;;;;;;;16.50;13.75;;;;;17.64;48.35;101431.78;5078992;27;45311;-56
2022/10/13 03:43:51;;;;;;;;;16.50;16.50;;;;;17.64;48.17;101440.59;5079231;28;45275;-57
2022/10/13 03:46:17;;;;;;;;;15.50;15.00;;;;;17.66;48.42;101448.53;5079284;27;45392;-56
2022/10/13 03:48:43;;;;;;;;;17.25;16.50;;;;;17.66;48.32;101448.53;5079131;27;45368;-57
2022/10/13 03:51:12;;;;;;;;;16.50;14.00;;;;;17.67;48.17;101437.88;5079066;28;46932;-56
2022/10/13 03:53:37;;;;;;;;;17.75;14.25;;;;;17.68;48.26;101438.72;5086561;27;45461;-56
2022/10/13 03:56:04;;;;;;;;;22.00;17.75;;;;;17.67;48.36;101424.56;5102748;27;45488;-56
2022/10/13 03:58:30;;;;;;;;;15.75;15.00;;;;;17.68;48.34;101428.09;5082634;27;45179;-56
2022/10/13 04:01:00;;;;;;;;;15.75;15.00;;;;;17.67;47.97;101419.25;5081995;27;46985;-57
2022/10/13 04:03:26;;;;;;;;;13.25;13.25;;;;;17.67;48.59;101411.28;5082425;27;45469;-57
2022/10/13 04:05:51;;;;;;;;;20.75;19.25;;;;;17.65;48.16;101404.28;5091907;27;45414;-56
2022/10/13 04:08:16;;;;;;;;;16.50;14.00;;;;;17.64;48.18;101410.53;5103113;27;45309;-56
2022/10/13 04:10:42;;;;;;;;;20.25;17.00;;;;;17.61;48.55;101408.84;5088103;27;45390;-56
2022/10/13 04:13:07;;;;;;;;;20.75;15.25;;;;;17.62;48.35;101410.56;5082467;27;45278;-56
2022/10/13 04:15:37;;;;;;;;;18.50;16.75;;;;;17.61;48.26;101411.50;5075293;27;45204;-56
2022/10/13 04:18:03;;;;;;;;;16.50;15.50;;;;;17.58;48.40;101403.59;5082340;27;45475;-56
2022/10/13 04:20:28;;;;;;;;;16.50;14.50;;;;;17.58;48.03;101410.72;5082078;27;46114;-56
2022/10/13 04:22:54;;;;;;;;;20.00;17.00;;;;;17.56;48.33;101405.47;5082026;27;45271;-54
2022/10/13 04:25:19;;;;;;;;;16.00;14.25;;;;;17.55;48.68;101406.38;5096761;27;45235;-57
2022/10/13 04:27:46;;;;;;;;;21.00;16.50;;;;;17.52;48.30;101403.81;5089003;27;45466;-56
2022/10/13 04:30:12;;;;;;;;;22.75;15.25;;;;;17.52;48.50;101420.63;5101845;27;45418;-56
2022/10/13 04:32:37;;;;;;;;;18.00;14.00;;;;;17.50;48.63;101422.47;5092147;27;45299;-56
2022/10/13 04:35:03;;;;;;;;;23.00;20.25;;;;;17.48;48.82;101423.44;5102582;27;45305;-56
2022/10/13 04:37:28;;;;;;;;;14.50;12.00;;;;;17.48;48.52;101420.78;5102671;27;45208;-56
2022/10/13 04:39:54;;;;;;;;;19.00;15.00;;;;;17.47;48.91;101411.06;5088742;27;45222;-57
2022/10/13 04:42:19;;;;;;;;;17.75;16.25;;;;;17.46;48.75;101417.28;5081973;27;45521;-56
2022/10/13 04:44:44;;;;;;;;;13.50;13.50;;;;;17.42;48.80;101411.22;5082177;27;45272;-56
2022/10/13 04:47:10;;;;;;;;;12.25;12.00;;;;;17.40;48.69;101409.53;5081675;27;45201;-56
2022/10/13 04:49:35;;;;;;;;;17.00;16.00;;;;;17.42;48.68;101410.34;5081780;27;46186;-56
2022/10/13 04:52:00;;;;;;;;;16.75;14.00;;;;;17.41;48.80;101413.91;5081710;28;45286;-56
2022/10/13 04:54:26;;;;;;;;;15.25;14.25;;;;;17.41;48.49;101428.09;5082080;27;45157;-57
2022/10/13 04:56:51;;;;;;;;;14.00;11.00;;;;;17.39;48.60;101427.25;5080503;27;45248;-56
2022/10/13 04:59:16;;;;;;;;;18.75;13.00;;;;;17.35;48.84;101418.50;5081703;27;45338;-56
2022/10/13 05:01:42;;;;;;;;;20.00;13.75;;;;;17.33;48.98;101417.69;5081364;28;45425;-57
2022/10/13 05:04:09;;;;;;;;;15.25;14.25;;;;;17.31;49.12;101416.88;5081992;27;45793;-56
2022/10/13 05:06:38;;;;;;;;;20.00;16.25;;;;;17.31;48.79;101421.31;5097011;27;45484;-57
2022/10/13 05:09:03;;;;;;;;;15.00;13.50;;;;;17.27;48.78;101415.25;5100557;27;46186;-56
2022/10/13 05:11:29;;;;;;;;;16.00;14.50;;;;;17.28;48.70;101421.41;5081318;27;45263;-56
2022/10/13 05:13:56;;;;;;;;;16.00;15.00;;;;;17.25;49.07;101406.44;5081593;27;45311;-57
2022/10/13 05:16:22;;;;;;;;;17.00;13.00;;;;;17.22;49.04;101396.78;5081117;27;45478;-57
2022/10/13 05:18:48;;;;;;;;;17.00;13.50;;;;;17.21;48.86;101402.16;5081156;27;45707;-56
2022/10/13 05:21:17;;;;;;;;;17.50;16.00;;;;;17.20;48.80;101390.63;5081259;27;45327;-56
2022/10/13 05:23:44;;;;;;;;;12.75;10.75;;;;;17.19;48.86;101396.00;5081262;27;45328;-55
2022/10/13 05:26:12;;;;;;;;;19.00;15.25;;;;;17.20;49.07;101400.41;5083365;27;45395;-54
2022/10/13 05:28:37;;;;;;;;;12.75;12.00;;;;;17.20;48.93;101392.44;5101230;27;46994;-56
2022/10/13 05:31:13;;;;;;;;;16.25;13.00;;;;;17.19;48.92;101406.63;5101290;27;45410;-55
2022/10/13 05:33:40;;;;;;;;;17.75;15.50;;;;;17.19;49.02;101415.47;5099081;27;45319;-55
2022/10/13 05:36:20;;;;;;;;;19.75;13.50;;;;;17.19;48.89;101409.28;5062870;28;45585;-56
2022/10/13 05:38:55;;;;;;;;;15.25;14.50;;;;;17.19;49.18;101403.97;5081323;27;46371;-56
2022/10/13 05:41:21;;;;;;;;;13.50;12.75;;;;;17.17;49.02;101393.41;5062523;28;45378;-55
2022/10/13 05:43:47;;;;;;;;;17.75;13.00;;;;;17.15;49.12;101381.94;5080787;27;45327;-56
2022/10/13 05:46:12;;;;;;;;;18.25;15.75;;;;;17.15;49.19;101376.63;5093884;27;45465;-56
2022/10/13 05:48:38;;;;;;;;;17.50;14.00;;;;;17.14;49.24;101369.59;5080896;27;46264;-56
2022/10/13 05:51:14;;;;;;;;;19.25;13.00;;;;;17.14;49.04;101382.88;5080836;27;45353;-57
2022/10/13 05:53:45;;;;;;;;;13.75;11.75;;;;;17.13;49.59;101385.56;5088951;27;45575;-56
2022/10/13 05:56:15;;;;;;;;;14.50;14.50;;;;;17.09;49.17;101379.47;5101199;27;45406;-55
2022/10/13 05:58:49;;;;;;;;;18.00;17.00;;;;;17.11;49.50;101372.34;5091638;27;46198;-57
2022/10/13 06:01:18;;;;;;;;;14.00;12.25;;;;;17.12;49.39;101365.25;5080284;27;45429;-55
2022/10/13 06:03:46;;;;;;;;;20.50;15.00;;;;;17.11;49.37;101355.56;5080544;28;45380;-55
2022/10/13 06:18:58;;;;;;;;;21.25;19.00;;;;;17.13;49.47;101389.13;5114130;27;45802;-55
2022/10/13 06:21:23;;;;;;;;;13.25;12.25;;;;;17.11;49.23;101382.13;5096778;27;45340;-57
2022/10/13 06:23:48;;;;;;;;;11.75;10.25;;;;;17.13;49.52;101391.78;5097125;27;45238;-56
2022/10/13 06:26:14;;;;;;;;;13.75;12.25;;;;;17.12;49.66;101389.13;5086838;27;45234;-57
2022/10/13 06:28:39;;;;;;;;;14.00;12.00;;;;;17.07;49.61;101391.97;5097042;27;46198;-56
2022/10/13 06:31:05;;;;;;;;;20.25;14.50;;;;;17.07;49.63;101389.31;5097061;27;45319;-57
2022/10/13 06:33:31;;;;;;;;;16.75;14.00;;;;;17.02;49.37;101378.81;5097328;27;45516;-57
2022/10/13 06:36:01;;;;;;;;;15.00;13.75;;;;;17.03;49.57;101384.97;5096938;27;45232;-57
2022/10/13 06:38:26;;;;;;;;;16.75;16.00;;;;;17.01;49.74;101381.53;5096738;27;46274;-56
2022/10/13 06:40:52;;;;;;;;;17.75;16.25;;;;;17.01;49.74;101381.53;5096798;27;45381;-57
2022/10/13 06:43:17;;;;;;;;;17.25;13.75;;;;;16.98;49.93;101382.50;5095407;27;45278;-56
2022/10/13 06:45:42;;;;;;;;;16.00;13.50;;;;;16.97;49.67;101366.63;5096775;27;45505;-56
2022/10/13 06:48:08;;;;;;;;;19.25;13.50;;;;;16.94;49.58;101364.03;5096736;27;45255;-56
2022/10/13 06:50:33;;;;;;;;;14.00;12.75;;;;;16.93;49.90;101371.16;5096688;27;45148;-57
2022/10/13 06:52:58;;;;;;;;;14.00;12.75;;;;;16.90;49.87;101369.44;5095412;27;45464;-57
2022/10/13 06:55:24;;;;;;;;;21.00;14.75;;;;;16.90;49.88;101366.78;5096624;27;45180;-57
2022/10/13 06:57:49;;;;;;;;;14.75;14.00;;;;;16.88;49.64;101365.94;5096638;27;46262;-57
2022/10/13 07:00:15;;;;;;;;;15.50;15.25;;;;;16.87;49.80;101366.84;5096515;27;45237;-56
2022/10/13 07:02:40;;;;;;;;;17.25;11.25;;;;;16.87;50.03;101380.13;5095446;27;45164;-57
2022/10/13 07:05:06;;;;;;;;;20.00;17.25;;;;;16.88;49.77;101375.69;5096460;27;45211;-57
2022/10/13 07:07:31;;;;;;;;;14.50;12.50;;;;;16.88;49.87;101384.53;5096221;27;45402;-57
2022/10/13 07:09:56;;;;;;;;;16.50;15.75;;;;;16.87;50.08;101390.75;5095663;27;45423;-57
2022/10/13 07:12:22;;;;;;;;;19.25;16.75;;;;;16.87;50.10;101395.19;5096794;27;45244;-56
2022/10/13 07:14:47;;;;;;;;;17.75;15.50;;;;;16.87;49.97;101392.53;5093659;27;45225;-57
2022/10/13 07:17:13;;;;;;;;;16.50;13.25;;;;;16.87;50.19;101400.50;5095812;27;46039;-57
2022/10/13 07:19:38;;;;;;;;;17.25;14.25;;;;;16.85;50.11;101389.91;5083891;27;45310;-56
2022/10/13 07:22:04;;;;;;;;;19.50;15.00;;;;;16.86;50.23;101396.09;5082629;27;45451;-57
2022/10/13 07:24:29;;;;;;;;;19.00;14.75;;;;;16.85;50.00;101397.00;5082426;27;45530;-56
2022/10/13 07:26:55;;;;;;;;;16.50;13.00;;;;;16.83;49.89;101413.00;5082531;27;45369;-56
2022/10/13 07:29:20;;;;;;;;;14.25;13.00;;;;;16.83;49.98;101405.03;5082637;27;45306;-57
2022/10/13 07:31:46;;;;;;;;;15.00;13.75;;;;;16.83;50.48;101412.09;5081477;28;45299;-57
2022/10/13 07:34:13;;;;;;;;;16.25;14.00;;;;;16.82;50.39;101405.09;5082478;27;45294;-57
2022/10/13 07:36:40;;;;;;;;;13.00;11.00;;;;;16.83;50.56;101405.03;5081033;28;47801;-57
2022/10/13 07:39:09;;;;;;;;;13.75;11.75;;;;;16.84;50.30;101398.81;5081727;27;45453;-56
2022/10/13 07:41:35;;;;;;;;;16.00;12.75;;;;;16.80;50.53;101389.19;5082477;27;45322;-57
2022/10/13 07:44:01;;;;;;;;;17.25;14.75;;;;;16.84;50.59;101392.63;5082043;27;45525;-57
2022/10/13 07:46:26;;;;;;;;;13.75;10.00;;;;;16.80;50.29;101396.28;5082142;27;46039;-57
2022/10/13 07:48:52;;;;;;;;;16.50;12.75;;;;;16.84;50.10;101397.91;5082213;27;45349;-57
2022/10/13 07:51:19;;;;;;;;;13.25;10.75;;;;;16.81;50.41;101393.56;5082396;27;45220;-57
2022/10/13 07:53:45;;;;;;;;;13.00;11.00;;;;;16.81;50.42;101393.56;5081681;27;45405;-57
2022/10/13 07:56:13;;;;;;;;;15.00;11.00;;;;;16.82;50.73;101391.81;5063947;28;46301;-58
2022/10/13 07:58:42;;;;;;;;;5.50;5.50;;;;;16.81;50.54;101401.53;5081973;28;45353;-58
2022/10/13 08:01:08;;;;;;;;;13.00;11.25;;;;;16.80;50.30;101404.25;5080761;28;45453;-58
2022/10/13 08:03:33;;;;;;;;;10.50;9.75;;;;;16.79;50.76;101416.66;5081873;27;45598;-57
2022/10/13 08:06:00;;;;;;;;;11.00;9.75;;;;;16.77;50.76;101418.47;5077234;28;46323;-58
2022/10/13 08:08:25;;;;;;;;;12.00;9.75;;;;;16.78;50.88;101417.56;5078682;28;45355;-58
2022/10/13 08:10:51;;;;;;;;;11.25;9.50;;;;;16.78;50.54;101422.00;5069977;28;45393;-58
2022/10/13 08:13:16;;;;;;;;;11.75;10.25;;;;;16.75;50.45;101422.94;5079058;28;45243;-58
2022/10/13 08:15:43;;;;;;;;;14.75;10.00;;;;;16.75;50.76;101417.66;5081735;27;46291;-58
2022/10/13 08:18:10;;;;;;;;;8.25;7.25;;;;;16.77;50.68;101426.44;5081569;27;45299;-58
2022/10/13 08:20:40;;;;;;;;;8.25;6.25;;;;;16.77;50.38;101428.25;5082026;27;45464;-58
2022/10/13 08:23:06;;;;;;;;;8.00;7.25;;;;;16.78;50.77;101428.19;5097057;27;45298;-58
2022/10/13 08:25:37;;;;;;;;;12.50;9.25;;;;;16.75;50.89;101433.56;5081766;27;45934;-58
2022/10/13 08:28:03;;;;;;;;;7.75;7.25;;;;;16.74;50.62;101423.84;5081532;27;45222;-58
2022/10/13 08:30:29;;;;;;;;;10.50;10.00;;;;;16.74;50.53;101431.81;5080578;27;45189;-58
2022/10/13 08:32:54;;;;;;;;;7.25;5.75;;;;;16.74;50.37;101421.19;5081556;27;45213;-58
2022/10/13 08:35:19;;;;;;;;;9.25;6.50;;;;;16.73;50.63;101420.34;5081531;27;45311;-57
2022/10/13 08:37:44;;;;;;;;;7.50;6.50;;;;;16.72;50.89;101423.06;5081184;27;45521;-57
2022/10/13 08:40:18;;;;;;;;;6.50;4.75;;;;;16.71;50.82;101413.34;5081821;27;45236;-57
2022/10/13 08:42:45;;;;;;;;;7.00;6.00;;;;;16.73;50.82;101423.00;5081269;28;45922;-58
2022/10/13 08:45:18;;;;;;;;;7.00;6.00;;;;;16.72;50.30;101429.22;5079982;28;46188;-58
2022/10/13 08:47:47;;;;;;;;;7.25;7.25;;;;;16.70;50.86;101423.09;5081385;28;45234;-58
2022/10/13 08:50:25;;;;;;;;;9.25;7.00;;;;;16.77;51.20;101437.06;5081479;27;45392;-58
2022/10/13 08:52:56;;;;;;;;;9.00;7.00;;;;;16.79;50.86;101437.91;5080995;27;45568;-58
2022/10/13 08:55:46;;;;;;;;;9.25;5.00;;;;;16.81;50.58;101432.53;5080933;27;47093;-58
2022/10/13 08:58:28;;;;;;;;;7.00;6.50;;;;;16.83;50.59;101425.38;5081432;27;45246;-58
2022/10/13 09:01:12;;;;;;;;;6.75;6.75;;;;;16.85;50.61;101418.25;5076832;28;45397;-57
2022/10/13 09:03:47;;;;;;;;;11.75;8.25;;;;;16.86;50.37;101420.84;5078141;28;45716;-58
2022/10/13 09:06:14;;;;;;;;;9.75;6.25;;;;;16.89;51.10;101422.53;5080979;27;47164;-58
2022/10/13 09:08:58;;;;;;;;;7.50;5.00;;;;;16.92;50.81;101430.47;5080513;27;45409;-58
2022/10/13 09:11:32;;;;;;;;;10.25;6.25;;;;;16.96;51.21;101415.31;5079848;28;45391;-58
2022/10/13 09:14:01;;;;;;;;;10.00;8.25;;;;;16.98;50.83;101422.31;5080826;27;45518;-57
2022/10/13 09:16:36;;;;;;;;;7.00;7.00;;;;;17.01;50.99;101426.66;5080594;27;46060;-58
2022/10/13 09:19:35;;;;;;;;;7.00;7.00;;;;;17.06;50.75;101422.06;5080854;27;45476;-58
2022/10/13 09:22:22;;;;;;;;;7.25;7.25;;;;;17.10;50.80;101431.69;5076726;27;45447;-57
2022/10/13 09:25:11;;;;;;;;;9.25;7.25;;;;;17.12;51.04;101427.22;5079393;28;45518;-58
2022/10/13 09:27:51;;;;;;;;;7.00;6.00;;;;;17.15;50.97;101434.19;5076658;28;47170;-58
2022/10/13 09:30:21;;;;;;;;;8.50;5.00;;;;;17.17;51.18;101438.56;5080708;27;45178;-58
2022/10/13 09:32:47;;;;;;;;;6.50;4.50;;;;;17.18;51.01;101427.00;5081013;27;45338;-58
2022/10/13 09:35:21;;;;;;;;;6.75;4.75;;;;;17.23;50.84;101426.84;5080674;27;45473;-58
2022/10/13 09:38:09;;;;;;;;;8.00;4.75;;;;;17.26;50.98;101417.91;5080089;27;45594;-58
2022/10/13 09:40:35;;;;;;;;;6.25;4.75;;;;;17.27;51.01;101419.66;5080544;27;45286;-58
2022/10/13 09:43:19;;;;;;;;;6.00;5.75;;;;;17.29;50.88;101417.84;5073733;27;45226;-58
2022/10/13 09:45:44;;;;;;;;;5.75;4.50;;;;;17.31;50.85;101400.94;5077067;28;45477;-56
2022/10/13 09:48:28;;;;;;;;;6.25;4.25;;;;;17.36;50.94;101412.28;5080387;27;45275;-57
2022/10/13 09:50:56;;;;;;;;;6.00;5.00;;;;;17.39;51.16;101403.34;5080417;27;45301;-58
2022/10/13 09:53:32;;;;;;;;;7.75;4.75;;;;;17.41;51.01;101409.47;5080199;27;45162;-58
2022/10/13 09:56:25;;;;;;;;;6.75;4.75;;;;;17.45;51.15;101407.59;5067643;28;45457;-58
2022/10/13 09:59:27;;;;;;;;;3.50;3.50;;;;;17.46;50.98;101407.53;5080163;27;45176;-58
2022/10/13 10:01:55;;;;;;;;;6.75;5.75;;;;;17.50;51.02;101410.97;5080368;27;45288;-58
2022/10/13 10:04:32;;;;;;;;;4.00;4.00;;;;;17.51;50.99;101420.69;5080362;27;45310;-58
2022/10/13 10:06:58;;;;;;;;;5.75;2.75;;;;;17.58;51.20;101421.34;5079836;27;45474;-58
2022/10/13 10:09:43;;;;;;;;;6.25;4.75;;;;;17.60;51.07;101423.03;5079959;27;45307;-57
2022/10/13 10:12:14;;;;;;;;;4.25;3.00;;;;;17.59;51.10;101417.78;5075358;27;45371;-57
2022/10/13 10:14:39;;;;;;;;;4.00;4.00;;;;;17.61;51.07;101419.47;5072576;28;45390;-58
2022/10/13 10:17:23;;;;;;;;;6.00;4.50;;;;;17.63;51.14;101414.94;5079750;27;45258;-58
2022/10/13 10:20:23;;;;;;;;;4.50;4.50;;;;;17.64;50.83;101410.53;5079878;27;46164;-57
2022/10/13 10:23:01;;;;;;;;;8.75;6.00;;;;;17.60;51.10;101419.53;5079516;27;45314;-58
2022/10/13 10:25:32;;;;;;;;;6.50;6.50;;;;;17.59;51.25;101418.63;5080116;27;45367;-57
2022/10/13 10:28:12;;;;;;;;;5.50;4.25;;;;;17.59;51.00;101412.47;5079610;28;45247;-57
2022/10/13 10:30:53;;;;;;;;;6.75;6.75;;;;;17.61;51.19;101403.50;5079974;27;46276;-57
2022/10/13 10:33:38;;;;;;;;;7.00;5.00;;;;;17.63;51.32;101408.78;5071066;28;45507;-57
2022/10/13 10:36:15;;;;;;;;;7.50;6.00;;;;;17.65;51.22;101409.59;5076535;28;45314;-57
2022/10/13 10:39:05;;;;;;;;;7.25;7.00;;;;;17.64;51.14;101403.41;5079324;27;45384;-57
2022/10/13 10:41:39;;;;;;;;;13.00;12.75;;;;;17.63;51.25;101396.34;5079802;28;46413;-58
2022/10/13 10:44:28;;;;;;;;;10.00;7.50;;;;;17.69;51.23;101401.47;5078382;28;45271;-58
2022/10/13 10:47:03;;;;;;;;;7.25;5.50;;;;;17.71;51.31;101388.13;5076520;28;45355;-58
2022/10/13 10:49:34;;;;;;;;;5.75;4.75;;;;;17.70;51.45;101391.72;5079793;27;45376;-58
2022/10/13 10:52:07;;;;;;;;;8.00;5.75;;;;;17.73;51.09;101386.28;5079402;27;46990;-58
2022/10/13 10:54:47;;;;;;;;;6.00;6.00;;;;;17.72;51.54;101389.84;5081669;27;45337;-58
2022/10/13 10:57:23;;;;;;;;;6.50;5.00;;;;;17.75;51.38;101384.44;5083079;28;45168;-58
2022/10/13 11:00:13;;;;;;;;;8.25;5.25;;;;;17.79;51.45;101394.03;5082944;27;45282;-58
2022/10/13 11:03:01;;;;;;;;;5.50;5.25;;;;;17.80;51.41;101395.78;5083008;27;45383;-58
2022/10/13 11:06:04;;;;;;;;;4.50;3.50;;;;;17.78;51.33;101384.31;5078186;28;45809;-58
2022/10/13 11:08:46;;;;;;;;;7.25;5.75;;;;;17.82;51.51;101380.66;5040453;28;45351;-58
2022/10/13 11:11:30;;;;;;;;;6.00;5.75;;;;;17.83;51.23;101379.72;5080912;27;45330;-58
2022/10/13 11:13:59;;;;;;;;;7.25;6.00;;;;;17.85;51.39;101385.88;5082771;27;45946;-58
2022/10/13 11:17:00;;;;;;;;;7.25;5.75;;;;;17.86;51.54;101376.97;5082582;27;45338;-58
2022/10/13 11:19:37;;;;;;;;;6.50;5.25;;;;;17.87;51.48;101384.03;5082805;28;45418;-58
2022/10/13 11:22:02;;;;;;;;;4.00;3.25;;;;;17.86;51.52;101374.31;5082671;27;45306;-58
2022/10/13 11:24:40;;;;;;;;;8.00;7.00;;;;;17.86;51.61;101378.75;5082378;28;46361;-58
2022/10/13 11:27:11;;;;;;;;;8.50;4.00;;;;;17.84;51.24;101372.63;5082565;27;45317;-58
2022/10/13 11:30:00;;;;;;;;;7.50;6.25;;;;;17.85;51.57;101363.75;5082414;27;45317;-58
2022/10/13 11:32:25;;;;;;;;;5.00;5.00;;;;;17.86;51.97;101354.81;5076495;28;45458;-56
2022/10/13 11:35:09;;;;;;;;;5.75;5.75;;;;;17.86;51.64;101354.81;5082381;27;45409;-58
2022/10/13 11:37:55;;;;;;;;;5.25;4.75;;;;;17.87;51.78;101348.59;5081923;27;45257;-58
2022/10/13 11:40:31;;;;;;;;;8.75;8.00;;;;;17.88;51.87;101352.97;5082824;27;45315;-59
2022/10/13 11:43:20;;;;;;;;;6.75;6.75;;;;;17.86;51.76;101347.72;5076188;27;45421;-58